sensor_id;sensor_type;location;lat;lon;timestamp;P1;durP1;ratioP1;P2;durP2;ratioP2
17488;SDS011;8861;52.644;4.734;2024-03-17T00:01:56;15.07;;;5.87;;
17488;SDS011;8861;52.644;4.734;2024-03-17T00:04:24;16.50;;;6.60;;
17488;SDS011;8861;52.644;4.734;2024-03-17T00:06:52;15.60;;;5.60;;
17488;SDS011;8861;52.644;4.734;2024-03-17T00:09:19;19.10;;;6.43;;
17488;SDS011;8861;52.644;4.734;2024-03-17T00:11:45;17.83;;;5.70;;
17488;SDS011;8861;52.644;4.734;2024-03-17T00:14:12;15.67;;;5.73;;
17488;SDS011;8861;52.644;4.734;2024-03-17T00:16:38;15.70;;;5.23;;
17488;SDS011;8861;52.644;4.734;2024-03-17T00:19:05;13.00;;;5.33;;
17488;SDS011;8861;52.644;4.734;2024-03-17T00:21:33;13.83;;;5.10;;
17488;SDS011;8861;52.644;4.734;2024-03-17T00:24:00;12.37;;;5.57;;
17488;SDS011;8861;52.644;4.734;2024-03-17T00:26:27;18.30;;;5.67;;
17488;SDS011;8861;52.644;4.734;2024-03-17T00:28:54;10.60;;;4.50;;
17488;SDS011;8861;52.644;4.734;2024-03-17T00:31:20;12.27;;;4.77;;
17488;SDS011;8861;52.644;4.734;2024-03-17T00:39:01;11.97;;;4.77;;
17488;SDS011;8861;52.644;4.734;2024-03-17T00:41:28;9.77;;;4.70;;
17488;SDS011;8861;52.644;4.734;2024-03-17T00:43:55;11.73;;;5.40;;
17488;SDS011;8861;52.644;4.734;2024-03-17T00:46:21;12.30;;;5.37;;
17488;SDS011;8861;52.644;4.734;2024-03-17T00:48:49;14.43;;;5.40;;
17488;SDS011;8861;52.644;4.734;2024-03-17T00:51:15;17.07;;;5.43;;
17488;SDS011;8861;52.644;4.734;2024-03-17T00:53:42;12.57;;;5.37;;
17488;SDS011;8861;52.644;4.734;2024-03-17T01:01:08;16.80;;;5.77;;
17488;SDS011;8861;52.644;4.734;2024-03-17T01:03:35;13.80;;;6.50;;
17488;SDS011;8861;52.644;4.734;2024-03-17T01:14:04;19.13;;;6.50;;
17488;SDS011;8861;52.644;4.734;2024-03-17T01:16:34;15.47;;;6.23;;
17488;SDS011;8861;52.644;4.734;2024-03-17T01:19:00;14.40;;;5.97;;
17488;SDS011;8861;52.644;4.734;2024-03-17T01:21:27;17.30;;;6.80;;
17488;SDS011;8861;52.644;4.734;2024-03-17T01:23:53;14.37;;;6.40;;
17488;SDS011;8861;52.644;4.734;2024-03-17T01:26:20;13.60;;;6.10;;
17488;SDS011;8861;52.644;4.734;2024-03-17T01:28:45;13.90;;;5.57;;
17488;SDS011;8861;52.644;4.734;2024-03-17T01:31:13;12.40;;;5.73;;
17488;SDS011;8861;52.644;4.734;2024-03-17T01:38:51;15.50;;;6.10;;
17488;SDS011;8861;52.644;4.734;2024-03-17T01:41:18;16.70;;;6.13;;
17488;SDS011;8861;52.644;4.734;2024-03-17T01:43:44;15.50;;;6.20;;
17488;SDS011;8861;52.644;4.734;2024-03-17T01:46:12;14.53;;;5.83;;
17488;SDS011;8861;52.644;4.734;2024-03-17T01:48:42;15.20;;;6.13;;
17488;SDS011;8861;52.644;4.734;2024-03-17T01:51:10;15.10;;;5.93;;
17488;SDS011;8861;52.644;4.734;2024-03-17T01:53:37;9.87;;;5.30;;
17488;SDS011;8861;52.644;4.734;2024-03-17T02:01:44;11.23;;;5.30;;
17488;SDS011;8861;52.644;4.734;2024-03-17T02:04:10;11.73;;;5.00;;
17488;SDS011;8861;52.644;4.734;2024-03-17T02:06:37;15.27;;;5.43;;
17488;SDS011;8861;52.644;4.734;2024-03-17T02:09:04;13.10;;;5.20;;
17488;SDS011;8861;52.644;4.734;2024-03-17T02:11:33;12.30;;;5.23;;
17488;SDS011;8861;52.644;4.734;2024-03-17T02:14:00;11.70;;;5.17;;
17488;SDS011;8861;52.644;4.734;2024-03-17T02:16:28;11.20;;;5.20;;
17488;SDS011;8861;52.644;4.734;2024-03-17T02:18:54;10.93;;;5.00;;
17488;SDS011;8861;52.644;4.734;2024-03-17T02:21:22;12.13;;;4.93;;
17488;SDS011;8861;52.644;4.734;2024-03-17T02:34:11;11.93;;;5.03;;
17488;SDS011;8861;52.644;4.734;2024-03-17T02:36:37;13.57;;;5.57;;
17488;SDS011;8861;52.644;4.734;2024-03-17T02:39:03;12.90;;;5.30;;
17488;SDS011;8861;52.644;4.734;2024-03-17T02:41:48;11.13;;;5.10;;
17488;SDS011;8861;52.644;4.734;2024-03-17T02:44:15;12.80;;;4.87;;
17488;SDS011;8861;52.644;4.734;2024-03-17T02:46:42;9.03;;;4.97;;
17488;SDS011;8861;52.644;4.734;2024-03-17T02:54:21;13.90;;;5.03;;
17488;SDS011;8861;52.644;4.734;2024-03-17T02:56:49;11.50;;;5.30;;
17488;SDS011;8861;52.644;4.734;2024-03-17T02:59:16;10.97;;;5.73;;
17488;SDS011;8861;52.644;4.734;2024-03-17T03:01:43;13.80;;;5.47;;
17488;SDS011;8861;52.644;4.734;2024-03-17T03:04:10;13.37;;;5.57;;
17488;SDS011;8861;52.644;4.734;2024-03-17T03:06:37;12.37;;;5.23;;
17488;SDS011;8861;52.644;4.734;2024-03-17T03:09:04;14.60;;;5.50;;
17488;SDS011;8861;52.644;4.734;2024-03-17T03:11:39;15.93;;;5.97;;
17488;SDS011;8861;52.644;4.734;2024-03-17T03:14:06;11.20;;;4.83;;
17488;SDS011;8861;52.644;4.734;2024-03-17T03:16:33;12.73;;;4.63;;
17488;SDS011;8861;52.644;4.734;2024-03-17T03:19:00;11.70;;;5.23;;
17488;SDS011;8861;52.644;4.734;2024-03-17T03:21:27;12.20;;;5.20;;
17488;SDS011;8861;52.644;4.734;2024-03-17T03:23:54;13.73;;;5.43;;
17488;SDS011;8861;52.644;4.734;2024-03-17T03:26:21;16.17;;;5.90;;
17488;SDS011;8861;52.644;4.734;2024-03-17T03:28:50;13.33;;;5.70;;
17488;SDS011;8861;52.644;4.734;2024-03-17T03:31:19;11.40;;;5.27;;
17488;SDS011;8861;52.644;4.734;2024-03-17T03:33:46;16.40;;;5.67;;
17488;SDS011;8861;52.644;4.734;2024-03-17T03:36:14;13.00;;;5.50;;
17488;SDS011;8861;52.644;4.734;2024-03-17T03:38:42;14.50;;;6.17;;
17488;SDS011;8861;52.644;4.734;2024-03-17T03:41:10;14.33;;;5.27;;
17488;SDS011;8861;52.644;4.734;2024-03-17T03:43:40;10.77;;;6.00;;
17488;SDS011;8861;52.644;4.734;2024-03-17T03:53:57;12.37;;;5.63;;
17488;SDS011;8861;52.644;4.734;2024-03-17T04:11:58;16.13;;;7.60;;
17488;SDS011;8861;52.644;4.734;2024-03-17T04:19:38;15.50;;;8.13;;
17488;SDS011;8861;52.644;4.734;2024-03-17T04:27:17;17.77;;;8.70;;
17488;SDS011;8861;52.644;4.734;2024-03-17T04:29:46;14.03;;;8.03;;
17488;SDS011;8861;52.644;4.734;2024-03-17T04:32:13;14.73;;;8.33;;
17488;SDS011;8861;52.644;4.734;2024-03-17T04:34:40;16.30;;;9.27;;
17488;SDS011;8861;52.644;4.734;2024-03-17T04:37:08;16.60;;;9.03;;
17488;SDS011;8861;52.644;4.734;2024-03-17T04:39:37;19.00;;;9.40;;
17488;SDS011;8861;52.644;4.734;2024-03-17T04:42:04;14.13;;;8.03;;
17488;SDS011;8861;52.644;4.734;2024-03-17T04:44:33;14.20;;;7.93;;
17488;SDS011;8861;52.644;4.734;2024-03-17T04:47:00;13.73;;;8.23;;
17488;SDS011;8861;52.644;4.734;2024-03-17T04:49:31;16.30;;;8.57;;
17488;SDS011;8861;52.644;4.734;2024-03-17T04:51:58;15.50;;;8.97;;
17488;SDS011;8861;52.644;4.734;2024-03-17T04:54:24;14.67;;;8.67;;
17488;SDS011;8861;52.644;4.734;2024-03-17T04:59:27;18.03;;;9.27;;
17488;SDS011;8861;52.644;4.734;2024-03-17T05:01:58;16.93;;;9.27;;
17488;SDS011;8861;52.644;4.734;2024-03-17T05:04:25;15.90;;;8.57;;
17488;SDS011;8861;52.644;4.734;2024-03-17T05:06:52;16.30;;;8.93;;
17488;SDS011;8861;52.644;4.734;2024-03-17T05:09:19;14.20;;;9.10;;
17488;SDS011;8861;52.644;4.734;2024-03-17T05:11:46;18.40;;;9.73;;
17488;SDS011;8861;52.644;4.734;2024-03-17T05:14:13;16.90;;;9.23;;
17488;SDS011;8861;52.644;4.734;2024-03-17T05:26:53;19.90;;;10.40;;
17488;SDS011;8861;52.644;4.734;2024-03-17T05:29:20;16.90;;;9.60;;
17488;SDS011;8861;52.644;4.734;2024-03-17T05:31:47;15.10;;;9.30;;
17488;SDS011;8861;52.644;4.734;2024-03-17T05:39:18;17.00;;;9.47;;
17488;SDS011;8861;52.644;4.734;2024-03-17T05:41:47;17.37;;;9.50;;
17488;SDS011;8861;52.644;4.734;2024-03-17T05:54:27;16.07;;;10.20;;
17488;SDS011;8861;52.644;4.734;2024-03-17T06:02:05;15.17;;;9.77;;
17488;SDS011;8861;52.644;4.734;2024-03-17T06:04:31;15.80;;;9.80;;
17488;SDS011;8861;52.644;4.734;2024-03-17T06:07:00;15.93;;;10.40;;
17488;SDS011;8861;52.644;4.734;2024-03-17T06:12:04;15.43;;;9.20;;
17488;SDS011;8861;52.644;4.734;2024-03-17T06:14:31;14.00;;;8.67;;
17488;SDS011;8861;52.644;4.734;2024-03-17T06:17:00;13.80;;;9.37;;
17488;SDS011;8861;52.644;4.734;2024-03-17T06:22:02;16.47;;;10.17;;
17488;SDS011;8861;52.644;4.734;2024-03-17T06:24:30;16.00;;;10.07;;
17488;SDS011;8861;52.644;4.734;2024-03-17T06:26:57;14.17;;;9.70;;
17488;SDS011;8861;52.644;4.734;2024-03-17T06:32:01;14.43;;;9.23;;
17488;SDS011;8861;52.644;4.734;2024-03-17T06:34:28;15.43;;;9.07;;
17488;SDS011;8861;52.644;4.734;2024-03-17T06:36:55;14.00;;;8.97;;
17488;SDS011;8861;52.644;4.734;2024-03-17T06:39:22;17.73;;;9.63;;
17488;SDS011;8861;52.644;4.734;2024-03-17T06:44:24;14.00;;;9.40;;
17488;SDS011;8861;52.644;4.734;2024-03-17T06:46:54;13.13;;;9.27;;
17488;SDS011;8861;52.644;4.734;2024-03-17T06:49:24;13.93;;;9.53;;
17488;SDS011;8861;52.644;4.734;2024-03-17T06:51:51;15.30;;;9.07;;
17488;SDS011;8861;52.644;4.734;2024-03-17T06:54:18;13.30;;;9.20;;
17488;SDS011;8861;52.644;4.734;2024-03-17T06:56:45;14.93;;;9.63;;
17488;SDS011;8861;52.644;4.734;2024-03-17T06:59:11;14.83;;;9.93;;
17488;SDS011;8861;52.644;4.734;2024-03-17T07:01:38;16.87;;;9.77;;
17488;SDS011;8861;52.644;4.734;2024-03-17T07:04:05;14.67;;;9.57;;
17488;SDS011;8861;52.644;4.734;2024-03-17T07:06:34;14.87;;;9.03;;
17488;SDS011;8861;52.644;4.734;2024-03-17T07:09:01;15.70;;;9.70;;
17488;SDS011;8861;52.644;4.734;2024-03-17T07:11:28;19.27;;;9.73;;
17488;SDS011;8861;52.644;4.734;2024-03-17T07:13:56;19.10;;;9.87;;
17488;SDS011;8861;52.644;4.734;2024-03-17T07:16:23;15.83;;;10.13;;
17488;SDS011;8861;52.644;4.734;2024-03-17T07:18:50;16.20;;;11.27;;
17488;SDS011;8861;52.644;4.734;2024-03-17T07:21:17;19.27;;;10.80;;
17488;SDS011;8861;52.644;4.734;2024-03-17T07:23:46;17.97;;;10.23;;
17488;SDS011;8861;52.644;4.734;2024-03-17T07:26:13;15.57;;;9.83;;
17488;SDS011;8861;52.644;4.734;2024-03-17T07:28:40;17.27;;;11.43;;
17488;SDS011;8861;52.644;4.734;2024-03-17T07:31:08;15.00;;;9.40;;
17488;SDS011;8861;52.644;4.734;2024-03-17T07:33:36;17.13;;;10.73;;
17488;SDS011;8861;52.644;4.734;2024-03-17T07:36:03;19.17;;;10.97;;
17488;SDS011;8861;52.644;4.734;2024-03-17T07:38:32;17.63;;;11.00;;
17488;SDS011;8861;52.644;4.734;2024-03-17T07:41:02;16.37;;;10.53;;
17488;SDS011;8861;52.644;4.734;2024-03-17T07:43:31;15.60;;;10.83;;
17488;SDS011;8861;52.644;4.734;2024-03-17T07:45:59;15.63;;;10.73;;
17488;SDS011;8861;52.644;4.734;2024-03-17T07:48:28;16.60;;;11.27;;
17488;SDS011;8861;52.644;4.734;2024-03-17T07:50:55;16.63;;;11.73;;
17488;SDS011;8861;52.644;4.734;2024-03-17T07:53:22;19.97;;;11.93;;
17488;SDS011;8861;52.644;4.734;2024-03-17T07:58:36;20.33;;;11.57;;
17488;SDS011;8861;52.644;4.734;2024-03-17T08:01:04;14.23;;;10.50;;
17488;SDS011;8861;52.644;4.734;2024-03-17T08:03:33;16.97;;;11.53;;
17488;SDS011;8861;52.644;4.734;2024-03-17T08:06:01;16.87;;;12.00;;
17488;SDS011;8861;52.644;4.734;2024-03-17T08:08:29;17.70;;;11.63;;
17488;SDS011;8861;52.644;4.734;2024-03-17T08:10:56;15.43;;;11.20;;
17488;SDS011;8861;52.644;4.734;2024-03-17T08:13:25;21.03;;;11.83;;
17488;SDS011;8861;52.644;4.734;2024-03-17T08:15:57;17.33;;;12.60;;
17488;SDS011;8861;52.644;4.734;2024-03-17T08:18:25;15.80;;;10.67;;
17488;SDS011;8861;52.644;4.734;2024-03-17T08:20:53;16.27;;;11.63;;
17488;SDS011;8861;52.644;4.734;2024-03-17T08:23:20;17.03;;;12.07;;
17488;SDS011;8861;52.644;4.734;2024-03-17T08:25:51;17.43;;;11.83;;
17488;SDS011;8861;52.644;4.734;2024-03-17T08:28:19;19.90;;;12.60;;
17488;SDS011;8861;52.644;4.734;2024-03-17T08:30:51;16.20;;;11.77;;
17488;SDS011;8861;52.644;4.734;2024-03-17T08:33:19;19.77;;;12.87;;
17488;SDS011;8861;52.644;4.734;2024-03-17T08:35:54;17.17;;;11.87;;
17488;SDS011;8861;52.644;4.734;2024-03-17T08:38:22;18.70;;;12.40;;
17488;SDS011;8861;52.644;4.734;2024-03-17T08:40:49;20.67;;;12.23;;
17488;SDS011;8861;52.644;4.734;2024-03-17T08:43:16;18.67;;;12.60;;
17488;SDS011;8861;52.644;4.734;2024-03-17T08:45:43;21.27;;;13.90;;
17488;SDS011;8861;52.644;4.734;2024-03-17T08:48:12;21.67;;;14.23;;
17488;SDS011;8861;52.644;4.734;2024-03-17T08:50:39;21.03;;;13.33;;
17488;SDS011;8861;52.644;4.734;2024-03-17T08:53:06;22.53;;;13.57;;
17488;SDS011;8861;52.644;4.734;2024-03-17T08:55:33;18.77;;;13.10;;
17488;SDS011;8861;52.644;4.734;2024-03-17T08:58:00;20.67;;;13.63;;
17488;SDS011;8861;52.644;4.734;2024-03-17T09:00:27;19.33;;;12.67;;
17488;SDS011;8861;52.644;4.734;2024-03-17T09:02:55;17.30;;;12.00;;
17488;SDS011;8861;52.644;4.734;2024-03-17T09:05:24;18.93;;;13.13;;
17488;SDS011;8861;52.644;4.734;2024-03-17T09:07:51;19.03;;;12.17;;
17488;SDS011;8861;52.644;4.734;2024-03-17T09:10:17;17.17;;;11.70;;
17488;SDS011;8861;52.644;4.734;2024-03-17T09:12:44;18.63;;;12.50;;
17488;SDS011;8861;52.644;4.734;2024-03-17T09:15:12;18.57;;;12.83;;
17488;SDS011;8861;52.644;4.734;2024-03-17T09:17:39;21.33;;;13.53;;
17488;SDS011;8861;52.644;4.734;2024-03-17T09:20:07;18.47;;;12.13;;
17488;SDS011;8861;52.644;4.734;2024-03-17T09:22:38;16.57;;;12.23;;
17488;SDS011;8861;52.644;4.734;2024-03-17T09:25:05;16.47;;;11.43;;
17488;SDS011;8861;52.644;4.734;2024-03-17T09:27:33;18.07;;;13.20;;
17488;SDS011;8861;52.644;4.734;2024-03-17T09:30:01;18.57;;;12.57;;
17488;SDS011;8861;52.644;4.734;2024-03-17T09:32:31;21.63;;;14.17;;
17488;SDS011;8861;52.644;4.734;2024-03-17T09:34:58;19.40;;;13.20;;
17488;SDS011;8861;52.644;4.734;2024-03-17T09:37:25;20.10;;;13.07;;
17488;SDS011;8861;52.644;4.734;2024-03-17T09:39:54;20.77;;;13.93;;
17488;SDS011;8861;52.644;4.734;2024-03-17T09:42:22;18.07;;;12.53;;
17488;SDS011;8861;52.644;4.734;2024-03-17T09:44:50;17.60;;;11.90;;
17488;SDS011;8861;52.644;4.734;2024-03-17T09:47:19;19.00;;;12.17;;
17488;SDS011;8861;52.644;4.734;2024-03-17T09:49:47;20.20;;;13.63;;
17488;SDS011;8861;52.644;4.734;2024-03-17T09:52:18;16.63;;;12.53;;
17488;SDS011;8861;52.644;4.734;2024-03-17T09:54:48;17.77;;;12.27;;
17488;SDS011;8861;52.644;4.734;2024-03-17T09:57:22;20.93;;;13.20;;
17488;SDS011;8861;52.644;4.734;2024-03-17T09:59:50;18.60;;;12.40;;
17488;SDS011;8861;52.644;4.734;2024-03-17T10:02:21;19.67;;;12.90;;
17488;SDS011;8861;52.644;4.734;2024-03-17T10:04:48;21.70;;;13.97;;
17488;SDS011;8861;52.644;4.734;2024-03-17T10:07:15;16.87;;;13.10;;
17488;SDS011;8861;52.644;4.734;2024-03-17T10:09:42;18.83;;;12.70;;
17488;SDS011;8861;52.644;4.734;2024-03-17T10:12:27;20.40;;;13.83;;
17488;SDS011;8861;52.644;4.734;2024-03-17T10:14:58;19.50;;;13.57;;
17488;SDS011;8861;52.644;4.734;2024-03-17T10:17:29;17.67;;;12.50;;
17488;SDS011;8861;52.644;4.734;2024-03-17T10:22:58;19.67;;;13.23;;
17488;SDS011;8861;52.644;4.734;2024-03-17T10:25:25;18.67;;;13.73;;
17488;SDS011;8861;52.644;4.734;2024-03-17T10:27:55;16.07;;;12.87;;
17488;SDS011;8861;52.644;4.734;2024-03-17T10:30:23;18.00;;;12.63;;
17488;SDS011;8861;52.644;4.734;2024-03-17T10:32:55;18.37;;;12.60;;
17488;SDS011;8861;52.644;4.734;2024-03-17T10:35:26;18.33;;;12.90;;
17488;SDS011;8861;52.644;4.734;2024-03-17T10:37:55;17.50;;;13.23;;
17488;SDS011;8861;52.644;4.734;2024-03-17T10:40:24;18.80;;;13.10;;
17488;SDS011;8861;52.644;4.734;2024-03-17T10:42:51;21.07;;;14.13;;
17488;SDS011;8861;52.644;4.734;2024-03-17T10:45:20;20.03;;;14.47;;
17488;SDS011;8861;52.644;4.734;2024-03-17T10:47:47;19.70;;;13.87;;
17488;SDS011;8861;52.644;4.734;2024-03-17T10:50:17;20.47;;;14.27;;
17488;SDS011;8861;52.644;4.734;2024-03-17T10:52:45;19.90;;;13.70;;
17488;SDS011;8861;52.644;4.734;2024-03-17T10:55:22;17.37;;;13.47;;
17488;SDS011;8861;52.644;4.734;2024-03-17T10:57:50;22.63;;;13.70;;
17488;SDS011;8861;52.644;4.734;2024-03-17T11:00:20;18.63;;;13.40;;
17488;SDS011;8861;52.644;4.734;2024-03-17T11:02:48;20.73;;;14.40;;
17488;SDS011;8861;52.644;4.734;2024-03-17T11:05:20;21.57;;;14.57;;
17488;SDS011;8861;52.644;4.734;2024-03-17T11:07:50;20.30;;;14.00;;
17488;SDS011;8861;52.644;4.734;2024-03-17T11:10:20;18.33;;;13.33;;
17488;SDS011;8861;52.644;4.734;2024-03-17T11:12:49;18.17;;;13.43;;
17488;SDS011;8861;52.644;4.734;2024-03-17T11:15:37;16.47;;;12.63;;
17488;SDS011;8861;52.644;4.734;2024-03-17T11:21:00;18.33;;;13.33;;
17488;SDS011;8861;52.644;4.734;2024-03-17T11:23:33;18.47;;;13.87;;
17488;SDS011;8861;52.644;4.734;2024-03-17T11:26:02;19.23;;;13.53;;
17488;SDS011;8861;52.644;4.734;2024-03-17T11:28:48;17.47;;;12.77;;
17488;SDS011;8861;52.644;4.734;2024-03-17T11:31:39;14.73;;;12.20;;
17488;SDS011;8861;52.644;4.734;2024-03-17T11:34:29;22.80;;;13.97;;
17488;SDS011;8861;52.644;4.734;2024-03-17T11:36:58;17.67;;;13.17;;
17488;SDS011;8861;52.644;4.734;2024-03-17T11:42:21;18.20;;;12.83;;
17488;SDS011;8861;52.644;4.734;2024-03-17T11:44:55;18.77;;;13.03;;
17488;SDS011;8861;52.644;4.734;2024-03-17T11:47:25;18.93;;;13.50;;
17488;SDS011;8861;52.644;4.734;2024-03-17T11:50:01;14.07;;;11.00;;
17488;SDS011;8861;52.644;4.734;2024-03-17T11:52:29;18.57;;;12.77;;
17488;SDS011;8861;52.644;4.734;2024-03-17T11:54:56;19.13;;;13.90;;
17488;SDS011;8861;52.644;4.734;2024-03-17T11:57:22;18.43;;;13.40;;
17488;SDS011;8861;52.644;4.734;2024-03-17T11:59:51;17.07;;;12.70;;
17488;SDS011;8861;52.644;4.734;2024-03-17T12:02:18;19.10;;;13.07;;
17488;SDS011;8861;52.644;4.734;2024-03-17T12:04:48;16.53;;;11.90;;
17488;SDS011;8861;52.644;4.734;2024-03-17T12:07:15;16.80;;;12.67;;
17488;SDS011;8861;52.644;4.734;2024-03-17T12:09:43;19.40;;;12.33;;
17488;SDS011;8861;52.644;4.734;2024-03-17T12:12:11;16.30;;;12.07;;
17488;SDS011;8861;52.644;4.734;2024-03-17T12:14:42;16.80;;;12.43;;
17488;SDS011;8861;52.644;4.734;2024-03-17T12:24:45;19.20;;;12.40;;
17488;SDS011;8861;52.644;4.734;2024-03-17T12:27:15;17.87;;;12.17;;
17488;SDS011;8861;52.644;4.734;2024-03-17T12:29:42;16.40;;;12.00;;
17488;SDS011;8861;52.644;4.734;2024-03-17T12:32:11;18.07;;;12.20;;
17488;SDS011;8861;52.644;4.734;2024-03-17T12:34:39;21.27;;;12.40;;
17488;SDS011;8861;52.644;4.734;2024-03-17T12:37:07;14.53;;;11.27;;
17488;SDS011;8861;52.644;4.734;2024-03-17T12:39:33;17.90;;;11.97;;
17488;SDS011;8861;52.644;4.734;2024-03-17T12:42:06;18.30;;;12.00;;
17488;SDS011;8861;52.644;4.734;2024-03-17T12:44:33;19.30;;;11.90;;
17488;SDS011;8861;52.644;4.734;2024-03-17T12:47:03;18.53;;;11.90;;
17488;SDS011;8861;52.644;4.734;2024-03-17T12:49:30;18.47;;;11.67;;
17488;SDS011;8861;52.644;4.734;2024-03-17T12:51:59;18.33;;;11.90;;
17488;SDS011;8861;52.644;4.734;2024-03-17T12:54:26;18.37;;;12.07;;
17488;SDS011;8861;52.644;4.734;2024-03-17T12:57:03;19.87;;;12.93;;
17488;SDS011;8861;52.644;4.734;2024-03-17T12:59:49;22.23;;;13.23;;
17488;SDS011;8861;52.644;4.734;2024-03-17T13:02:33;18.63;;;12.63;;
17488;SDS011;8861;52.644;4.734;2024-03-17T13:05:17;19.90;;;13.33;;
17488;SDS011;8861;52.644;4.734;2024-03-17T13:07:46;18.73;;;11.67;;
17488;SDS011;8861;52.644;4.734;2024-03-17T13:10:13;20.07;;;12.80;;
17488;SDS011;8861;52.644;4.734;2024-03-17T13:12:41;20.50;;;13.33;;
17488;SDS011;8861;52.644;4.734;2024-03-17T13:15:11;21.27;;;13.47;;
17488;SDS011;8861;52.644;4.734;2024-03-17T13:17:40;19.40;;;13.20;;
17488;SDS011;8861;52.644;4.734;2024-03-17T13:20:08;20.33;;;12.77;;
17488;SDS011;8861;52.644;4.734;2024-03-17T13:22:40;20.43;;;13.30;;
17488;SDS011;8861;52.644;4.734;2024-03-17T13:25:13;19.53;;;12.97;;
17488;SDS011;8861;52.644;4.734;2024-03-17T13:27:42;20.30;;;13.00;;
17488;SDS011;8861;52.644;4.734;2024-03-17T13:30:12;20.40;;;14.00;;
17488;SDS011;8861;52.644;4.734;2024-03-17T13:32:40;24.30;;;14.30;;
17488;SDS011;8861;52.644;4.734;2024-03-17T13:35:13;21.27;;;12.90;;
17488;SDS011;8861;52.644;4.734;2024-03-17T13:37:43;18.73;;;12.40;;
17488;SDS011;8861;52.644;4.734;2024-03-17T13:40:12;21.73;;;13.83;;
17488;SDS011;8861;52.644;4.734;2024-03-17T13:42:41;20.30;;;13.10;;
17488;SDS011;8861;52.644;4.734;2024-03-17T13:47:56;18.30;;;12.47;;
17488;SDS011;8861;52.644;4.734;2024-03-17T13:50:25;20.10;;;12.70;;
17488;SDS011;8861;52.644;4.734;2024-03-17T13:52:53;20.13;;;11.93;;
17488;SDS011;8861;52.644;4.734;2024-03-17T13:55:20;22.20;;;12.37;;
17488;SDS011;8861;52.644;4.734;2024-03-17T13:57:49;20.33;;;12.47;;
17488;SDS011;8861;52.644;4.734;2024-03-17T14:00:19;19.33;;;12.33;;
17488;SDS011;8861;52.644;4.734;2024-03-17T14:02:47;18.23;;;11.27;;
17488;SDS011;8861;52.644;4.734;2024-03-17T14:05:16;18.83;;;12.57;;
17488;SDS011;8861;52.644;4.734;2024-03-17T14:07:45;18.37;;;12.77;;
17488;SDS011;8861;52.644;4.734;2024-03-17T14:10:12;21.37;;;13.50;;
17488;SDS011;8861;52.644;4.734;2024-03-17T14:12:41;21.37;;;14.70;;
17488;SDS011;8861;52.644;4.734;2024-03-17T14:17:34;20.67;;;14.03;;
17488;SDS011;8861;52.644;4.734;2024-03-17T14:20:01;22.13;;;12.97;;
17488;SDS011;8861;52.644;4.734;2024-03-17T14:22:33;21.43;;;13.83;;
17488;SDS011;8861;52.644;4.734;2024-03-17T14:25:03;21.50;;;14.03;;
17488;SDS011;8861;52.644;4.734;2024-03-17T14:27:31;20.00;;;13.47;;
17488;SDS011;8861;52.644;4.734;2024-03-17T14:29:59;20.30;;;13.27;;
17488;SDS011;8861;52.644;4.734;2024-03-17T14:32:26;20.70;;;13.67;;
17488;SDS011;8861;52.644;4.734;2024-03-17T14:34:53;19.07;;;13.00;;
17488;SDS011;8861;52.644;4.734;2024-03-17T14:37:20;20.67;;;12.97;;
17488;SDS011;8861;52.644;4.734;2024-03-17T14:39:50;18.73;;;12.30;;
17488;SDS011;8861;52.644;4.734;2024-03-17T14:42:18;19.57;;;12.53;;
17488;SDS011;8861;52.644;4.734;2024-03-17T14:44:45;18.67;;;11.97;;
17488;SDS011;8861;52.644;4.734;2024-03-17T14:47:12;19.70;;;12.33;;
17488;SDS011;8861;52.644;4.734;2024-03-17T14:49:39;17.13;;;12.27;;
17488;SDS011;8861;52.644;4.734;2024-03-17T14:52:06;20.43;;;13.87;;
17488;SDS011;8861;52.644;4.734;2024-03-17T14:54:34;17.40;;;12.77;;
17488;SDS011;8861;52.644;4.734;2024-03-17T14:57:02;15.73;;;12.00;;
17488;SDS011;8861;52.644;4.734;2024-03-17T14:59:29;20.87;;;13.23;;
17488;SDS011;8861;52.644;4.734;2024-03-17T15:01:56;21.57;;;13.53;;
17488;SDS011;8861;52.644;4.734;2024-03-17T15:04:23;16.03;;;12.30;;
17488;SDS011;8861;52.644;4.734;2024-03-17T15:06:52;20.23;;;12.53;;
17488;SDS011;8861;52.644;4.734;2024-03-17T15:09:19;21.77;;;13.77;;
17488;SDS011;8861;52.644;4.734;2024-03-17T15:11:46;19.93;;;12.03;;
17488;SDS011;8861;52.644;4.734;2024-03-17T15:14:15;16.57;;;10.63;;
17488;SDS011;8861;52.644;4.734;2024-03-17T15:16:43;19.93;;;13.00;;
17488;SDS011;8861;52.644;4.734;2024-03-17T15:19:11;18.67;;;12.87;;
17488;SDS011;8861;52.644;4.734;2024-03-17T15:21:38;20.20;;;13.27;;
17488;SDS011;8861;52.644;4.734;2024-03-17T15:24:05;18.00;;;13.03;;
17488;SDS011;8861;52.644;4.734;2024-03-17T15:26:32;22.73;;;13.47;;
17488;SDS011;8861;52.644;4.734;2024-03-17T15:28:59;21.13;;;13.10;;
17488;SDS011;8861;52.644;4.734;2024-03-17T15:31:30;18.90;;;13.10;;
17488;SDS011;8861;52.644;4.734;2024-03-17T15:33:57;20.10;;;13.13;;
17488;SDS011;8861;52.644;4.734;2024-03-17T15:36:25;22.63;;;13.67;;
17488;SDS011;8861;52.644;4.734;2024-03-17T15:38:54;22.67;;;14.47;;
17488;SDS011;8861;52.644;4.734;2024-03-17T15:41:21;19.90;;;13.37;;
17488;SDS011;8861;52.644;4.734;2024-03-17T15:43:47;24.60;;;14.77;;
17488;SDS011;8861;52.644;4.734;2024-03-17T15:46:16;21.13;;;13.63;;
17488;SDS011;8861;52.644;4.734;2024-03-17T15:48:46;23.77;;;14.80;;
17488;SDS011;8861;52.644;4.734;2024-03-17T15:51:20;23.67;;;14.80;;
17488;SDS011;8861;52.644;4.734;2024-03-17T15:53:47;21.67;;;14.20;;
17488;SDS011;8861;52.644;4.734;2024-03-17T15:56:14;21.77;;;14.73;;
17488;SDS011;8861;52.644;4.734;2024-03-17T15:58:41;20.50;;;14.30;;
17488;SDS011;8861;52.644;4.734;2024-03-17T16:01:08;25.43;;;14.73;;
17488;SDS011;8861;52.644;4.734;2024-03-17T16:03:37;22.13;;;14.63;;
17488;SDS011;8861;52.644;4.734;2024-03-17T16:06:09;20.40;;;14.80;;
17488;SDS011;8861;52.644;4.734;2024-03-17T16:08:39;23.10;;;14.60;;
17488;SDS011;8861;52.644;4.734;2024-03-17T16:11:10;27.53;;;17.70;;
17488;SDS011;8861;52.644;4.734;2024-03-17T16:13:38;23.13;;;14.57;;
17488;SDS011;8861;52.644;4.734;2024-03-17T16:16:06;23.33;;;15.30;;
17488;SDS011;8861;52.644;4.734;2024-03-17T16:18:35;26.07;;;16.10;;
17488;SDS011;8861;52.644;4.734;2024-03-17T16:21:05;20.60;;;14.87;;
17488;SDS011;8861;52.644;4.734;2024-03-17T16:23:36;25.80;;;14.97;;
17488;SDS011;8861;52.644;4.734;2024-03-17T16:26:05;24.33;;;15.40;;
17488;SDS011;8861;52.644;4.734;2024-03-17T16:28:33;24.33;;;15.70;;
17488;SDS011;8861;52.644;4.734;2024-03-17T16:31:02;25.00;;;16.40;;
17488;SDS011;8861;52.644;4.734;2024-03-17T16:33:31;28.47;;;16.73;;
17488;SDS011;8861;52.644;4.734;2024-03-17T16:36:00;25.23;;;16.07;;
17488;SDS011;8861;52.644;4.734;2024-03-17T16:38:31;28.20;;;16.60;;
17488;SDS011;8861;52.644;4.734;2024-03-17T16:40:58;27.77;;;18.00;;
17488;SDS011;8861;52.644;4.734;2024-03-17T16:43:29;28.63;;;17.63;;
17488;SDS011;8861;52.644;4.734;2024-03-17T16:46:18;27.53;;;17.50;;
17488;SDS011;8861;52.644;4.734;2024-03-17T16:48:55;29.07;;;18.00;;
17488;SDS011;8861;52.644;4.734;2024-03-17T16:51:22;26.40;;;17.63;;
17488;SDS011;8861;52.644;4.734;2024-03-17T16:53:51;30.10;;;18.13;;
17488;SDS011;8861;52.644;4.734;2024-03-17T16:56:18;36.13;;;20.50;;
17488;SDS011;8861;52.644;4.734;2024-03-17T16:58:46;33.27;;;19.97;;
17488;SDS011;8861;52.644;4.734;2024-03-17T17:01:13;33.53;;;20.17;;
17488;SDS011;8861;52.644;4.734;2024-03-17T17:03:41;43.33;;;25.57;;
17488;SDS011;8861;52.644;4.734;2024-03-17T17:06:09;32.53;;;21.10;;
17488;SDS011;8861;52.644;4.734;2024-03-17T17:08:36;40.23;;;23.20;;
17488;SDS011;8861;52.644;4.734;2024-03-17T17:11:04;42.10;;;24.07;;
17488;SDS011;8861;52.644;4.734;2024-03-17T17:13:32;34.20;;;21.27;;